sensor_id;sensor_type;location;lat;lon;timestamp;P1;durP1;ratioP1;P2;durP2;ratioP2
20480;SDS011;10399;50.754;3.366;2024-03-08T00:00:06;27.98;;;14.93;;
20480;SDS011;10399;50.754;3.366;2024-03-08T00:02:44;35.50;;;15.88;;
20480;SDS011;10399;50.754;3.366;2024-03-08T00:05:12;30.38;;;16.27;;
20480;SDS011;10399;50.754;3.366;2024-03-08T00:07:41;27.15;;;16.08;;
20480;SDS011;10399;50.754;3.366;2024-03-08T00:10:10;26.52;;;15.32;;
20480;SDS011;10399;50.754;3.366;2024-03-08T00:12:40;28.80;;;15.73;;
20480;SDS011;10399;50.754;3.366;2024-03-08T00:15:10;29.15;;;15.70;;
20480;SDS011;10399;50.754;3.366;2024-03-08T00:17:44;27.02;;;15.45;;
20480;SDS011;10399;50.754;3.366;2024-03-08T00:20:11;27.02;;;16.33;;
20480;SDS011;10399;50.754;3.366;2024-03-08T00:22:40;28.52;;;14.88;;
20480;SDS011;10399;50.754;3.366;2024-03-08T00:25:07;26.92;;;14.73;;
20480;SDS011;10399;50.754;3.366;2024-03-08T00:27:38;25.90;;;15.25;;
20480;SDS011;10399;50.754;3.366;2024-03-08T00:30:05;27.95;;;15.60;;
20480;SDS011;10399;50.754;3.366;2024-03-08T00:32:33;32.28;;;16.65;;
20480;SDS011;10399;50.754;3.366;2024-03-08T00:35:01;27.90;;;15.27;;
20480;SDS011;10399;50.754;3.366;2024-03-08T00:37:28;27.58;;;15.32;;
20480;SDS011;10399;50.754;3.366;2024-03-08T00:39:56;31.15;;;15.23;;
20480;SDS011;10399;50.754;3.366;2024-03-08T00:42:23;27.65;;;16.05;;
20480;SDS011;10399;50.754;3.366;2024-03-08T00:44:50;34.97;;;16.17;;
20480;SDS011;10399;50.754;3.366;2024-03-08T00:47:18;31.63;;;16.50;;
20480;SDS011;10399;50.754;3.366;2024-03-08T00:49:45;29.15;;;15.75;;
20480;SDS011;10399;50.754;3.366;2024-03-08T00:52:13;28.25;;;15.50;;
20480;SDS011;10399;50.754;3.366;2024-03-08T00:54:40;30.42;;;15.98;;
20480;SDS011;10399;50.754;3.366;2024-03-08T00:57:10;29.05;;;16.13;;
20480;SDS011;10399;50.754;3.366;2024-03-08T00:59:38;31.58;;;17.25;;
20480;SDS011;10399;50.754;3.366;2024-03-08T01:02:05;29.80;;;16.00;;
20480;SDS011;10399;50.754;3.366;2024-03-08T01:04:32;36.90;;;16.23;;
20480;SDS011;10399;50.754;3.366;2024-03-08T01:06:59;30.40;;;16.25;;
20480;SDS011;10399;50.754;3.366;2024-03-08T01:09:27;34.60;;;19.30;;
20480;SDS011;10399;50.754;3.366;2024-03-08T01:11:54;37.22;;;20.40;;
20480;SDS011;10399;50.754;3.366;2024-03-08T01:14:22;40.10;;;20.27;;
20480;SDS011;10399;50.754;3.366;2024-03-08T01:16:50;36.95;;;21.23;;
20480;SDS011;10399;50.754;3.366;2024-03-08T01:19:17;35.03;;;20.88;;
20480;SDS011;10399;50.754;3.366;2024-03-08T01:21:44;39.70;;;21.33;;
20480;SDS011;10399;50.754;3.366;2024-03-08T01:24:11;36.03;;;19.92;;
20480;SDS011;10399;50.754;3.366;2024-03-08T01:26:38;38.60;;;19.38;;
20480;SDS011;10399;50.754;3.366;2024-03-08T01:29:06;34.53;;;19.17;;
20480;SDS011;10399;50.754;3.366;2024-03-08T01:31:32;37.85;;;19.20;;
20480;SDS011;10399;50.754;3.366;2024-03-08T01:34:00;34.75;;;18.73;;
20480;SDS011;10399;50.754;3.366;2024-03-08T01:36:26;33.80;;;17.55;;
20480;SDS011;10399;50.754;3.366;2024-03-08T01:38:54;32.53;;;19.02;;
20480;SDS011;10399;50.754;3.366;2024-03-08T01:41:21;40.53;;;20.02;;
20480;SDS011;10399;50.754;3.366;2024-03-08T01:43:48;35.17;;;20.50;;
20480;SDS011;10399;50.754;3.366;2024-03-08T01:46:17;35.08;;;19.45;;
20480;SDS011;10399;50.754;3.366;2024-03-08T01:48:48;32.58;;;17.90;;
20480;SDS011;10399;50.754;3.366;2024-03-08T01:51:17;34.10;;;18.17;;
20480;SDS011;10399;50.754;3.366;2024-03-08T01:53:46;46.25;;;19.00;;
20480;SDS011;10399;50.754;3.366;2024-03-08T01:56:14;32.15;;;17.40;;
20480;SDS011;10399;50.754;3.366;2024-03-08T01:58:41;28.70;;;16.65;;
20480;SDS011;10399;50.754;3.366;2024-03-08T02:01:13;30.10;;;16.23;;
20480;SDS011;10399;50.754;3.366;2024-03-08T02:03:42;33.15;;;16.58;;
20480;SDS011;10399;50.754;3.366;2024-03-08T02:06:11;30.27;;;17.42;;
20480;SDS011;10399;50.754;3.366;2024-03-08T02:08:44;31.30;;;16.02;;
20480;SDS011;10399;50.754;3.366;2024-03-08T02:11:13;37.85;;;16.45;;
20480;SDS011;10399;50.754;3.366;2024-03-08T02:13:42;33.25;;;16.90;;
20480;SDS011;10399;50.754;3.366;2024-03-08T02:16:09;32.08;;;16.73;;
20480;SDS011;10399;50.754;3.366;2024-03-08T02:18:36;31.27;;;16.92;;
20480;SDS011;10399;50.754;3.366;2024-03-08T02:21:06;30.65;;;17.30;;
20480;SDS011;10399;50.754;3.366;2024-03-08T02:23:35;34.08;;;17.02;;
20480;SDS011;10399;50.754;3.366;2024-03-08T02:26:04;34.58;;;17.08;;
20480;SDS011;10399;50.754;3.366;2024-03-08T02:28:31;29.20;;;16.00;;
20480;SDS011;10399;50.754;3.366;2024-03-08T02:30:58;33.20;;;15.73;;
20480;SDS011;10399;50.754;3.366;2024-03-08T02:33:26;37.45;;;16.27;;
20480;SDS011;10399;50.754;3.366;2024-03-08T02:35:54;31.67;;;16.08;;
20480;SDS011;10399;50.754;3.366;2024-03-08T02:38:24;30.60;;;15.77;;
20480;SDS011;10399;50.754;3.366;2024-03-08T02:40:52;33.53;;;15.93;;
20480;SDS011;10399;50.754;3.366;2024-03-08T02:43:21;32.78;;;16.92;;
20480;SDS011;10399;50.754;3.366;2024-03-08T02:45:48;35.92;;;16.90;;
20480;SDS011;10399;50.754;3.366;2024-03-08T02:48:16;36.58;;;17.35;;
20480;SDS011;10399;50.754;3.366;2024-03-08T02:50:43;29.95;;;15.52;;
20480;SDS011;10399;50.754;3.366;2024-03-08T02:53:12;29.73;;;15.70;;
20480;SDS011;10399;50.754;3.366;2024-03-08T02:55:40;32.20;;;15.90;;
20480;SDS011;10399;50.754;3.366;2024-03-08T02:58:08;30.63;;;16.00;;
20480;SDS011;10399;50.754;3.366;2024-03-08T03:00:37;35.03;;;16.55;;
20480;SDS011;10399;50.754;3.366;2024-03-08T03:03:07;32.00;;;15.90;;
20480;SDS011;10399;50.754;3.366;2024-03-08T03:05:35;36.70;;;17.52;;
20480;SDS011;10399;50.754;3.366;2024-03-08T03:08:02;31.83;;;16.67;;
20480;SDS011;10399;50.754;3.366;2024-03-08T03:10:36;35.85;;;17.55;;
20480;SDS011;10399;50.754;3.366;2024-03-08T03:13:03;33.85;;;17.15;;
20480;SDS011;10399;50.754;3.366;2024-03-08T03:15:33;30.70;;;15.50;;
20480;SDS011;10399;50.754;3.366;2024-03-08T03:18:03;31.15;;;16.27;;
20480;SDS011;10399;50.754;3.366;2024-03-08T03:20:34;33.03;;;16.52;;
20480;SDS011;10399;50.754;3.366;2024-03-08T03:23:07;33.42;;;17.20;;
20480;SDS011;10399;50.754;3.366;2024-03-08T03:25:35;31.05;;;16.10;;
20480;SDS011;10399;50.754;3.366;2024-03-08T03:28:05;32.88;;;17.23;;
20480;SDS011;10399;50.754;3.366;2024-03-08T03:30:34;35.40;;;16.30;;
20480;SDS011;10399;50.754;3.366;2024-03-08T03:33:01;37.03;;;17.38;;
20480;SDS011;10399;50.754;3.366;2024-03-08T03:35:34;30.45;;;16.55;;
20480;SDS011;10399;50.754;3.366;2024-03-08T03:38:03;33.22;;;17.02;;
20480;SDS011;10399;50.754;3.366;2024-03-08T03:40:36;36.55;;;17.10;;
20480;SDS011;10399;50.754;3.366;2024-03-08T03:43:05;33.35;;;18.13;;
20480;SDS011;10399;50.754;3.366;2024-03-08T03:45:32;36.63;;;17.58;;
20480;SDS011;10399;50.754;3.366;2024-03-08T03:48:04;30.50;;;15.75;;
20480;SDS011;10399;50.754;3.366;2024-03-08T03:50:33;35.70;;;17.88;;
20480;SDS011;10399;50.754;3.366;2024-03-08T03:53:03;34.72;;;16.77;;
20480;SDS011;10399;50.754;3.366;2024-03-08T03:55:31;34.15;;;17.10;;
20480;SDS011;10399;50.754;3.366;2024-03-08T03:57:58;34.20;;;17.20;;
20480;SDS011;10399;50.754;3.366;2024-03-08T04:00:27;35.65;;;17.92;;
20480;SDS011;10399;50.754;3.366;2024-03-08T04:02:54;36.72;;;17.63;;
20480;SDS011;10399;50.754;3.366;2024-03-08T04:05:25;33.65;;;17.50;;
20480;SDS011;10399;50.754;3.366;2024-03-08T04:07:53;35.00;;;17.42;;
20480;SDS011;10399;50.754;3.366;2024-03-08T04:10:19;37.08;;;18.08;;
20480;SDS011;10399;50.754;3.366;2024-03-08T04:12:47;38.83;;;19.35;;
20480;SDS011;10399;50.754;3.366;2024-03-08T04:15:14;36.42;;;18.25;;
20480;SDS011;10399;50.754;3.366;2024-03-08T04:17:41;34.30;;;18.38;;
20480;SDS011;10399;50.754;3.366;2024-03-08T04:20:09;35.65;;;18.70;;
20480;SDS011;10399;50.754;3.366;2024-03-08T04:22:37;37.58;;;19.10;;
20480;SDS011;10399;50.754;3.366;2024-03-08T04:25:06;35.45;;;18.73;;
20480;SDS011;10399;50.754;3.366;2024-03-08T04:27:33;36.10;;;18.48;;
20480;SDS011;10399;50.754;3.366;2024-03-08T04:30:01;36.03;;;18.33;;
20480;SDS011;10399;50.754;3.366;2024-03-08T04:32:29;33.67;;;18.63;;
20480;SDS011;10399;50.754;3.366;2024-03-08T04:34:59;34.70;;;19.05;;
20480;SDS011;10399;50.754;3.366;2024-03-08T04:37:30;37.30;;;19.42;;
20480;SDS011;10399;50.754;3.366;2024-03-08T04:39:58;36.80;;;19.05;;
20480;SDS011;10399;50.754;3.366;2024-03-08T04:42:26;35.67;;;18.50;;
20480;SDS011;10399;50.754;3.366;2024-03-08T04:44:55;39.35;;;19.25;;
20480;SDS011;10399;50.754;3.366;2024-03-08T04:47:22;35.75;;;18.92;;
20480;SDS011;10399;50.754;3.366;2024-03-08T04:49:49;37.20;;;19.33;;
20480;SDS011;10399;50.754;3.366;2024-03-08T04:52:16;39.40;;;18.63;;
20480;SDS011;10399;50.754;3.366;2024-03-08T04:54:44;43.47;;;19.77;;
20480;SDS011;10399;50.754;3.366;2024-03-08T04:57:11;34.00;;;18.27;;
20480;SDS011;10399;50.754;3.366;2024-03-08T04:59:38;39.85;;;20.10;;
20480;SDS011;10399;50.754;3.366;2024-03-08T05:02:05;36.15;;;19.38;;
20480;SDS011;10399;50.754;3.366;2024-03-08T05:04:33;36.70;;;20.73;;
20480;SDS011;10399;50.754;3.366;2024-03-08T05:07:00;33.53;;;19.30;;
20480;SDS011;10399;50.754;3.366;2024-03-08T05:09:28;33.70;;;19.65;;
20480;SDS011;10399;50.754;3.366;2024-03-08T05:11:58;39.20;;;19.85;;
20480;SDS011;10399;50.754;3.366;2024-03-08T05:14:25;36.80;;;19.98;;
20480;SDS011;10399;50.754;3.366;2024-03-08T05:16:53;34.30;;;20.00;;
20480;SDS011;10399;50.754;3.366;2024-03-08T05:19:20;37.03;;;19.88;;
20480;SDS011;10399;50.754;3.366;2024-03-08T05:21:48;38.20;;;20.25;;
20480;SDS011;10399;50.754;3.366;2024-03-08T05:24:16;40.00;;;20.75;;
20480;SDS011;10399;50.754;3.366;2024-03-08T05:26:45;36.20;;;20.05;;
20480;SDS011;10399;50.754;3.366;2024-03-08T05:29:13;39.42;;;20.08;;
20480;SDS011;10399;50.754;3.366;2024-03-08T05:31:48;38.38;;;20.40;;
20480;SDS011;10399;50.754;3.366;2024-03-08T05:34:16;45.40;;;21.67;;
20480;SDS011;10399;50.754;3.366;2024-03-08T05:36:45;39.58;;;22.00;;
20480;SDS011;10399;50.754;3.366;2024-03-08T05:39:13;38.03;;;21.30;;
20480;SDS011;10399;50.754;3.366;2024-03-08T05:41:40;37.92;;;21.17;;
20480;SDS011;10399;50.754;3.366;2024-03-08T05:44:08;39.78;;;21.75;;
20480;SDS011;10399;50.754;3.366;2024-03-08T05:46:36;39.78;;;21.20;;
20480;SDS011;10399;50.754;3.366;2024-03-08T05:49:04;50.60;;;22.27;;
20480;SDS011;10399;50.754;3.366;2024-03-08T05:51:32;42.83;;;21.48;;
20480;SDS011;10399;50.754;3.366;2024-03-08T05:54:06;39.92;;;21.25;;
20480;SDS011;10399;50.754;3.366;2024-03-08T05:56:41;40.72;;;22.85;;
20480;SDS011;10399;50.754;3.366;2024-03-08T05:59:10;39.13;;;22.42;;
20480;SDS011;10399;50.754;3.366;2024-03-08T06:01:38;38.83;;;22.05;;
20480;SDS011;10399;50.754;3.366;2024-03-08T06:04:08;40.78;;;22.58;;
20480;SDS011;10399;50.754;3.366;2024-03-08T06:06:37;38.55;;;21.23;;
20480;SDS011;10399;50.754;3.366;2024-03-08T06:09:08;39.38;;;22.30;;
20480;SDS011;10399;50.754;3.366;2024-03-08T06:11:56;43.60;;;21.67;;
20480;SDS011;10399;50.754;3.366;2024-03-08T06:14:41;41.90;;;22.58;;
20480;SDS011;10399;50.754;3.366;2024-03-08T06:17:14;39.75;;;22.58;;
20480;SDS011;10399;50.754;3.366;2024-03-08T06:19:45;38.53;;;21.45;;
20480;SDS011;10399;50.754;3.366;2024-03-08T06:22:21;39.72;;;21.42;;
20480;SDS011;10399;50.754;3.366;2024-03-08T06:24:57;37.35;;;22.23;;
20480;SDS011;10399;50.754;3.366;2024-03-08T06:27:26;40.80;;;23.15;;
20480;SDS011;10399;50.754;3.366;2024-03-08T06:29:57;42.85;;;23.55;;
20480;SDS011;10399;50.754;3.366;2024-03-08T06:32:27;37.33;;;21.33;;
20480;SDS011;10399;50.754;3.366;2024-03-08T06:34:56;40.88;;;23.00;;
20480;SDS011;10399;50.754;3.366;2024-03-08T06:37:23;38.83;;;22.70;;
20480;SDS011;10399;50.754;3.366;2024-03-08T06:40:00;42.75;;;22.70;;
20480;SDS011;10399;50.754;3.366;2024-03-08T06:42:31;45.78;;;22.77;;
20480;SDS011;10399;50.754;3.366;2024-03-08T06:45:04;42.15;;;23.13;;
20480;SDS011;10399;50.754;3.366;2024-03-08T06:47:35;38.47;;;22.02;;
20480;SDS011;10399;50.754;3.366;2024-03-08T06:50:06;42.90;;;23.10;;
20480;SDS011;10399;50.754;3.366;2024-03-08T06:52:37;42.95;;;22.27;;
20480;SDS011;10399;50.754;3.366;2024-03-08T06:55:09;41.88;;;22.60;;
20480;SDS011;10399;50.754;3.366;2024-03-08T06:57:39;43.63;;;21.92;;
20480;SDS011;10399;50.754;3.366;2024-03-08T07:00:12;44.38;;;22.58;;
20480;SDS011;10399;50.754;3.366;2024-03-08T07:02:47;43.75;;;22.08;;
20480;SDS011;10399;50.754;3.366;2024-03-08T07:05:17;45.35;;;22.98;;
20480;SDS011;10399;50.754;3.366;2024-03-08T07:07:45;40.00;;;21.63;;
20480;SDS011;10399;50.754;3.366;2024-03-08T07:10:18;42.50;;;22.85;;
20480;SDS011;10399;50.754;3.366;2024-03-08T07:12:45;44.22;;;22.60;;
20480;SDS011;10399;50.754;3.366;2024-03-08T07:15:16;37.90;;;22.13;;
20480;SDS011;10399;50.754;3.366;2024-03-08T07:17:48;41.75;;;21.65;;
20480;SDS011;10399;50.754;3.366;2024-03-08T07:20:18;39.00;;;21.95;;
20480;SDS011;10399;50.754;3.366;2024-03-08T07:22:46;42.03;;;22.33;;
20480;SDS011;10399;50.754;3.366;2024-03-08T07:25:22;46.03;;;22.63;;
20480;SDS011;10399;50.754;3.366;2024-03-08T07:27:53;37.50;;;21.80;;
20480;SDS011;10399;50.754;3.366;2024-03-08T07:30:25;41.03;;;22.52;;
20480;SDS011;10399;50.754;3.366;2024-03-08T07:33:14;44.58;;;21.25;;
20480;SDS011;10399;50.754;3.366;2024-03-08T07:35:51;40.75;;;23.00;;
20480;SDS011;10399;50.754;3.366;2024-03-08T07:38:21;46.55;;;23.35;;
20480;SDS011;10399;50.754;3.366;2024-03-08T07:40:48;39.92;;;21.58;;
20480;SDS011;10399;50.754;3.366;2024-03-08T07:43:21;38.13;;;21.15;;
20480;SDS011;10399;50.754;3.366;2024-03-08T07:45:49;38.70;;;21.48;;
20480;SDS011;10399;50.754;3.366;2024-03-08T07:48:20;35.58;;;21.67;;
20480;SDS011;10399;50.754;3.366;2024-03-08T07:50:53;37.83;;;20.80;;
20480;SDS011;10399;50.754;3.366;2024-03-08T07:53:20;38.90;;;21.95;;
20480;SDS011;10399;50.754;3.366;2024-03-08T07:55:48;39.42;;;21.48;;
20480;SDS011;10399;50.754;3.366;2024-03-08T07:58:15;42.05;;;22.80;;
20480;SDS011;10399;50.754;3.366;2024-03-08T08:00:47;38.78;;;22.13;;
20480;SDS011;10399;50.754;3.366;2024-03-08T08:03:15;36.22;;;20.73;;
20480;SDS011;10399;50.754;3.366;2024-03-08T08:05:55;40.45;;;21.05;;
20480;SDS011;10399;50.754;3.366;2024-03-08T08:08:28;35.20;;;21.17;;
20480;SDS011;10399;50.754;3.366;2024-03-08T08:10:58;39.70;;;21.00;;
20480;SDS011;10399;50.754;3.366;2024-03-08T08:13:29;33.75;;;20.45;;
20480;SDS011;10399;50.754;3.366;2024-03-08T08:16:03;34.22;;;20.75;;
20480;SDS011;10399;50.754;3.366;2024-03-08T08:18:35;38.40;;;20.50;;
20480;SDS011;10399;50.754;3.366;2024-03-08T08:21:02;36.50;;;21.52;;
20480;SDS011;10399;50.754;3.366;2024-03-08T08:23:42;36.28;;;22.27;;
20480;SDS011;10399;50.754;3.366;2024-03-08T08:26:12;37.33;;;20.63;;
20480;SDS011;10399;50.754;3.366;2024-03-08T08:28:41;31.88;;;19.98;;
20480;SDS011;10399;50.754;3.366;2024-03-08T08:31:09;36.35;;;21.25;;
20480;SDS011;10399;50.754;3.366;2024-03-08T08:33:37;36.03;;;20.88;;
20480;SDS011;10399;50.754;3.366;2024-03-08T08:36:04;38.67;;;19.95;;
20480;SDS011;10399;50.754;3.366;2024-03-08T08:38:31;37.03;;;21.15;;
20480;SDS011;10399;50.754;3.366;2024-03-08T08:40:58;38.97;;;20.80;;
20480;SDS011;10399;50.754;3.366;2024-03-08T08:43:25;36.40;;;20.38;;
20480;SDS011;10399;50.754;3.366;2024-03-08T08:45:53;38.40;;;20.48;;
20480;SDS011;10399;50.754;3.366;2024-03-08T08:48:21;34.70;;;19.92;;
20480;SDS011;10399;50.754;3.366;2024-03-08T08:50:48;34.42;;;18.83;;
20480;SDS011;10399;50.754;3.366;2024-03-08T08:53:16;35.08;;;20.02;;
20480;SDS011;10399;50.754;3.366;2024-03-08T08:55:44;35.47;;;19.25;;
20480;SDS011;10399;50.754;3.366;2024-03-08T08:58:14;38.55;;;20.60;;
20480;SDS011;10399;50.754;3.366;2024-03-08T09:00:41;32.65;;;19.92;;
20480;SDS011;10399;50.754;3.366;2024-03-08T09:03:10;30.20;;;19.05;;
20480;SDS011;10399;50.754;3.366;2024-03-08T09:05:38;37.83;;;19.65;;
20480;SDS011;10399;50.754;3.366;2024-03-08T09:08:07;32.88;;;19.92;;
20480;SDS011;10399;50.754;3.366;2024-03-08T09:10:35;35.08;;;20.13;;
20480;SDS011;10399;50.754;3.366;2024-03-08T09:13:03;31.92;;;19.02;;
20480;SDS011;10399;50.754;3.366;2024-03-08T09:15:30;36.47;;;19.70;;
20480;SDS011;10399;50.754;3.366;2024-03-08T09:17:58;36.00;;;19.15;;
20480;SDS011;10399;50.754;3.366;2024-03-08T09:20:26;33.25;;;18.55;;
20480;SDS011;10399;50.754;3.366;2024-03-08T09:22:53;32.92;;;18.88;;
20480;SDS011;10399;50.754;3.366;2024-03-08T09:25:21;34.78;;;19.77;;
20480;SDS011;10399;50.754;3.366;2024-03-08T09:27:48;34.47;;;19.92;;
20480;SDS011;10399;50.754;3.366;2024-03-08T09:30:29;35.42;;;19.13;;
20480;SDS011;10399;50.754;3.366;2024-03-08T09:33:11;34.03;;;19.27;;
20480;SDS011;10399;50.754;3.366;2024-03-08T09:35:40;34.53;;;18.75;;
20480;SDS011;10399;50.754;3.366;2024-03-08T09:38:20;34.75;;;19.92;;
20480;SDS011;10399;50.754;3.366;2024-03-08T09:40:48;31.35;;;18.95;;
20480;SDS011;10399;50.754;3.366;2024-03-08T09:43:15;34.75;;;19.13;;
20480;SDS011;10399;50.754;3.366;2024-03-08T09:45:56;39.22;;;18.88;;
20480;SDS011;10399;50.754;3.366;2024-03-08T09:48:24;37.92;;;19.20;;
20480;SDS011;10399;50.754;3.366;2024-03-08T09:50:55;35.60;;;19.20;;
20480;SDS011;10399;50.754;3.366;2024-03-08T09:53:23;35.83;;;19.88;;
20480;SDS011;10399;50.754;3.366;2024-03-08T09:55:50;32.42;;;19.42;;
20480;SDS011;10399;50.754;3.366;2024-03-08T09:58:18;33.05;;;19.30;;
20480;SDS011;10399;50.754;3.366;2024-03-08T10:00:45;35.42;;;19.70;;
20480;SDS011;10399;50.754;3.366;2024-03-08T10:03:13;29.02;;;18.55;;
20480;SDS011;10399;50.754;3.366;2024-03-08T10:05:41;32.88;;;19.80;;
20480;SDS011;10399;50.754;3.366;2024-03-08T10:08:13;32.47;;;19.60;;
20480;SDS011;10399;50.754;3.366;2024-03-08T10:10:40;31.75;;;19.23;;
20480;SDS011;10399;50.754;3.366;2024-03-08T10:13:08;29.58;;;18.70;;
20480;SDS011;10399;50.754;3.366;2024-03-08T10:15:36;34.47;;;18.23;;
20480;SDS011;10399;50.754;3.366;2024-03-08T10:18:05;30.85;;;19.17;;
20480;SDS011;10399;50.754;3.366;2024-03-08T10:20:33;41.15;;;18.67;;
20480;SDS011;10399;50.754;3.366;2024-03-08T10:23:01;31.65;;;18.95;;
20480;SDS011;10399;50.754;3.366;2024-03-08T10:25:37;33.95;;;19.38;;
20480;SDS011;10399;50.754;3.366;2024-03-08T10:28:04;37.75;;;19.48;;
20480;SDS011;10399;50.754;3.366;2024-03-08T10:30:32;34.70;;;19.15;;
20480;SDS011;10399;50.754;3.366;2024-03-08T10:32:59;30.80;;;18.85;;
20480;SDS011;10399;50.754;3.366;2024-03-08T10:35:27;31.08;;;19.30;;
20480;SDS011;10399;50.754;3.366;2024-03-08T10:37:55;29.70;;;19.73;;
20480;SDS011;10399;50.754;3.366;2024-03-08T10:40:27;32.70;;;20.23;;
20480;SDS011;10399;50.754;3.366;2024-03-08T10:42:56;32.97;;;18.02;;
20480;SDS011;10399;50.754;3.366;2024-03-08T10:45:34;31.30;;;17.85;;
20480;SDS011;10399;50.754;3.366;2024-03-08T10:51:03;33.78;;;19.23;;
20480;SDS011;10399;50.754;3.366;2024-03-08T10:53:31;31.30;;;18.50;;
20480;SDS011;10399;50.754;3.366;2024-03-08T10:56:00;31.70;;;18.92;;
20480;SDS011;10399;50.754;3.366;2024-03-08T10:58:28;35.63;;;18.90;;
20480;SDS011;10399;50.754;3.366;2024-03-08T11:00:56;35.47;;;18.90;;
20480;SDS011;10399;50.754;3.366;2024-03-08T11:06:07;31.33;;;18.45;;
20480;SDS011;10399;50.754;3.366;2024-03-08T11:08:36;32.47;;;17.50;;
20480;SDS011;10399;50.754;3.366;2024-03-08T11:11:03;26.83;;;17.73;;
20480;SDS011;10399;50.754;3.366;2024-03-08T11:18:55;32.97;;;18.67;;
20480;SDS011;10399;50.754;3.366;2024-03-08T11:21:31;30.80;;;18.05;;
20480;SDS011;10399;50.754;3.366;2024-03-08T11:24:12;31.50;;;19.25;;
20480;SDS011;10399;50.754;3.366;2024-03-08T11:26:40;33.38;;;18.67;;
20480;SDS011;10399;50.754;3.366;2024-03-08T11:34:49;33.42;;;18.90;;
20480;SDS011;10399;50.754;3.366;2024-03-08T11:37:17;31.58;;;18.52;;
20480;SDS011;10399;50.754;3.366;2024-03-08T11:39:48;29.02;;;18.70;;
20480;SDS011;10399;50.754;3.366;2024-03-08T11:42:16;34.50;;;18.73;;
20480;SDS011;10399;50.754;3.366;2024-03-08T11:44:45;30.38;;;17.65;;
20480;SDS011;10399;50.754;3.366;2024-03-08T11:47:15;28.35;;;18.30;;
20480;SDS011;10399;50.754;3.366;2024-03-08T11:49:43;32.58;;;18.77;;
20480;SDS011;10399;50.754;3.366;2024-03-08T11:52:11;33.00;;;18.48;;
20480;SDS011;10399;50.754;3.366;2024-03-08T11:54:40;28.85;;;18.15;;
20480;SDS011;10399;50.754;3.366;2024-03-08T11:57:18;29.42;;;18.48;;
20480;SDS011;10399;50.754;3.366;2024-03-08T11:59:54;30.85;;;17.73;;
20480;SDS011;10399;50.754;3.366;2024-03-08T12:02:33;30.52;;;17.35;;
20480;SDS011;10399;50.754;3.366;2024-03-08T12:05:04;28.80;;;16.63;;
20480;SDS011;10399;50.754;3.366;2024-03-08T12:07:39;32.88;;;17.67;;
20480;SDS011;10399;50.754;3.366;2024-03-08T12:12:46;27.65;;;17.17;;
20480;SDS011;10399;50.754;3.366;2024-03-08T12:15:15;33.05;;;18.73;;
20480;SDS011;10399;50.754;3.366;2024-03-08T12:17:44;28.27;;;16.42;;
20480;SDS011;10399;50.754;3.366;2024-03-08T12:20:21;27.33;;;17.05;;
20480;SDS011;10399;50.754;3.366;2024-03-08T12:22:51;31.08;;;17.88;;
20480;SDS011;10399;50.754;3.366;2024-03-08T12:25:20;26.08;;;16.80;;
20480;SDS011;10399;50.754;3.366;2024-03-08T12:27:47;25.67;;;16.60;;
20480;SDS011;10399;50.754;3.366;2024-03-08T12:35:23;30.02;;;17.42;;
20480;SDS011;10399;50.754;3.366;2024-03-08T12:37:52;27.08;;;17.55;;
20480;SDS011;10399;50.754;3.366;2024-03-08T12:40:31;29.50;;;17.30;;
20480;SDS011;10399;50.754;3.366;2024-03-08T12:43:01;27.58;;;17.20;;
20480;SDS011;10399;50.754;3.366;2024-03-08T12:45:29;27.98;;;15.95;;
20480;SDS011;10399;50.754;3.366;2024-03-08T12:47:56;31.15;;;17.85;;
20480;SDS011;10399;50.754;3.366;2024-03-08T12:50:23;28.77;;;17.10;;
20480;SDS011;10399;50.754;3.366;2024-03-08T12:52:53;26.10;;;16.90;;
20480;SDS011;10399;50.754;3.366;2024-03-08T12:55:20;25.73;;;16.73;;
20480;SDS011;10399;50.754;3.366;2024-03-08T12:57:47;25.33;;;15.80;;
20480;SDS011;10399;50.754;3.366;2024-03-08T13:00:15;25.27;;;16.10;;
20480;SDS011;10399;50.754;3.366;2024-03-08T13:02:50;24.38;;;16.13;;
20480;SDS011;10399;50.754;3.366;2024-03-08T13:05:18;26.80;;;16.95;;
20480;SDS011;10399;50.754;3.366;2024-03-08T13:07:46;29.17;;;16.30;;
20480;SDS011;10399;50.754;3.366;2024-03-08T13:10:13;24.02;;;15.77;;
20480;SDS011;10399;50.754;3.366;2024-03-08T13:12:44;24.65;;;16.02;;
20480;SDS011;10399;50.754;3.366;2024-03-08T13:15:25;25.27;;;16.88;;
20480;SDS011;10399;50.754;3.366;2024-03-08T13:18:06;26.70;;;15.82;;
20480;SDS011;10399;50.754;3.366;2024-03-08T13:20:35;24.85;;;15.55;;
20480;SDS011;10399;50.754;3.366;2024-03-08T13:23:13;22.33;;;15.88;;
20480;SDS011;10399;50.754;3.366;2024-03-08T13:25:41;22.65;;;14.90;;
20480;SDS011;10399;50.754;3.366;2024-03-08T13:28:08;24.27;;;15.32;;
20480;SDS011;10399;50.754;3.366;2024-03-08T13:30:37;27.05;;;15.68;;
20480;SDS011;10399;50.754;3.366;2024-03-08T13:33:04;26.38;;;15.45;;
20480;SDS011;10399;50.754;3.366;2024-03-08T13:35:33;23.02;;;14.13;;
20480;SDS011;10399;50.754;3.366;2024-03-08T13:38:01;22.42;;;15.02;;
20480;SDS011;10399;50.754;3.366;2024-03-08T13:40:31;23.02;;;14.75;;
20480;SDS011;10399;50.754;3.366;2024-03-08T13:42:58;23.25;;;14.40;;
20480;SDS011;10399;50.754;3.366;2024-03-08T13:45:27;24.73;;;14.95;;
20480;SDS011;10399;50.754;3.366;2024-03-08T13:47:55;20.70;;;14.05;;
20480;SDS011;10399;50.754;3.366;2024-03-08T13:50:22;19.63;;;13.85;;
20480;SDS011;10399;50.754;3.366;2024-03-08T13:53:03;21.45;;;13.80;;
20480;SDS011;10399;50.754;3.366;2024-03-08T13:55:35;23.55;;;14.82;;
20480;SDS011;10399;50.754;3.366;2024-03-08T13:58:02;21.83;;;13.98;;
20480;SDS011;10399;50.754;3.366;2024-03-08T14:00:30;21.58;;;14.45;;
20480;SDS011;10399;50.754;3.366;2024-03-08T14:03:01;22.33;;;13.88;;
20480;SDS011;10399;50.754;3.366;2024-03-08T14:05:32;26.45;;;15.07;;
20480;SDS011;10399;50.754;3.366;2024-03-08T14:08:02;25.98;;;13.65;;
20480;SDS011;10399;50.754;3.366;2024-03-08T14:10:30;21.98;;;13.93;;
20480;SDS011;10399;50.754;3.366;2024-03-08T14:12:57;23.20;;;13.48;;
20480;SDS011;10399;50.754;3.366;2024-03-08T14:15:25;19.63;;;13.15;;
20480;SDS011;10399;50.754;3.366;2024-03-08T14:18:06;20.75;;;13.52;;
20480;SDS011;10399;50.754;3.366;2024-03-08T14:20:34;27.38;;;13.45;;
20480;SDS011;10399;50.754;3.366;2024-03-08T14:23:03;20.13;;;12.70;;
20480;SDS011;10399;50.754;3.366;2024-03-08T14:25:33;23.70;;;13.15;;
20480;SDS011;10399;50.754;3.366;2024-03-08T14:28:00;21.63;;;12.80;;
20480;SDS011;10399;50.754;3.366;2024-03-08T14:30:34;20.77;;;13.35;;
20480;SDS011;10399;50.754;3.366;2024-03-08T14:33:02;20.48;;;12.70;;
20480;SDS011;10399;50.754;3.366;2024-03-08T14:35:32;20.85;;;13.02;;
20480;SDS011;10399;50.754;3.366;2024-03-08T14:37:59;26.20;;;14.52;;
20480;SDS011;10399;50.754;3.366;2024-03-08T14:40:27;20.80;;;13.02;;
20480;SDS011;10399;50.754;3.366;2024-03-08T14:42:54;18.45;;;12.95;;
20480;SDS011;10399;50.754;3.366;2024-03-08T14:45:22;25.50;;;14.18;;
20480;SDS011;10399;50.754;3.366;2024-03-08T14:47:50;23.50;;;13.43;;
20480;SDS011;10399;50.754;3.366;2024-03-08T14:50:18;22.95;;;12.65;;
20480;SDS011;10399;50.754;3.366;2024-03-08T14:52:46;22.65;;;13.18;;
20480;SDS011;10399;50.754;3.366;2024-03-08T14:55:16;20.38;;;12.32;;
20480;SDS011;10399;50.754;3.366;2024-03-08T14:57:48;21.75;;;13.57;;